createdAt,value
2019-03-22T00:04:01.588Z,39.70
2019-03-22T00:10:11.373Z,39.32
2019-03-22T00:12:41.245Z,39.90
2019-03-22T00:15:11.283Z,40.75
2019-03-22T00:22:59.370Z,41.58
2019-03-22T00:25:29.212Z,41.03
2019-03-22T00:27:58.995Z,40.74
2019-03-22T00:30:28.764Z,40.48
2019-03-22T00:32:58.566Z,41.17
2019-03-22T00:35:28.433Z,40.54
2019-03-22T00:37:58.394Z,41.31
2019-03-22T00:40:28.419Z,41.03
2019-03-22T00:46:44.112Z,41.32
2019-03-22T00:49:14.203Z,40.93
2019-03-22T00:51:44.282Z,41.99
2019-03-22T00:54:14.285Z,40.94
2019-03-22T00:56:44.995Z,41.21
2019-03-22T00:59:14.816Z,41.00
2019-03-22T01:01:44.735Z,41.23
2019-03-22T01:04:23.359Z,41.73
2019-03-22T01:06:53.185Z,41.65
2019-03-22T01:09:22.958Z,42.54
2019-03-22T01:11:52.975Z,41.83
2019-03-22T01:14:22.909Z,42.23
2019-03-22T01:17:22.979Z,42.08
2019-03-22T01:19:52.959Z,41.70
2019-03-22T01:22:23.399Z,41.59
2019-03-22T01:24:53.380Z,42.01
2019-03-22T01:30:45.073Z,42.49
2019-03-22T01:33:15.935Z,42.82
2019-03-22T01:38:21.619Z,42.75
2019-03-22T01:44:34.226Z,42.62
2019-03-22T01:47:04.490Z,42.42
2019-03-22T01:53:01.875Z,42.45
2019-03-22T01:55:31.948Z,42.65
2019-03-22T01:58:02.001Z,43.08
2019-03-22T02:00:54.763Z,42.79
2019-03-22T02:03:24.669Z,43.24
2019-03-22T02:05:54.890Z,43.14
2019-03-22T02:08:24.886Z,42.60
2019-03-22T02:14:43.005Z,42.99
2019-03-22T02:28:56.197Z,43.47
2019-03-22T02:31:32.464Z,44.63
2019-03-22T02:34:02.402Z,44.15
2019-03-22T02:36:32.192Z,44.10
2019-03-22T02:49:06.013Z,44.01
2019-03-22T02:51:35.835Z,43.77
2019-03-22T03:01:47.805Z,43.96
2019-03-22T03:04:17.734Z,44.10
2019-03-22T03:06:47.653Z,44.26
2019-03-22T03:10:08.850Z,44.00
2019-03-22T03:13:34.294Z,44.07
2019-03-22T03:42:09.565Z,45.73
2019-03-22T03:44:39.503Z,45.52
2019-03-22T03:47:10.705Z,45.98
2019-03-22T03:50:34.531Z,45.40
2019-03-22T03:53:04.564Z,45.41
2019-03-22T03:55:34.368Z,46.04
2019-03-22T03:58:04.262Z,46.13
2019-03-22T04:04:46.490Z,45.70
2019-03-22T04:07:16.345Z,45.54
2019-03-22T04:09:47.846Z,46.16
2019-03-22T04:12:18.519Z,46.59
2019-03-22T04:15:26.797Z,45.95
2019-03-22T04:17:56.627Z,46.27
2019-03-22T04:20:26.519Z,46.12
2019-03-22T04:22:56.268Z,46.22
2019-03-22T04:25:26.188Z,45.52
2019-03-22T04:27:56.074Z,46.10
2019-03-22T04:30:26.642Z,46.28
2019-03-22T04:32:59.913Z,46.27
2019-03-22T04:35:47.523Z,46.26
2019-03-22T04:38:41.738Z,46.88
2019-03-22T04:45:03.315Z,47.30
2019-03-22T04:47:46.197Z,47.47
2019-03-22T04:53:50.025Z,47.33
2019-03-22T04:56:22.066Z,46.82
2019-03-22T04:58:53.439Z,47.44
2019-03-22T05:01:25.624Z,47.76
2019-03-22T05:03:58.922Z,47.83
2019-03-22T05:06:28.475Z,47.93
2019-03-22T05:09:01.141Z,48.47
2019-03-22T05:11:31.283Z,49.05
2019-03-22T05:14:02.671Z,49.33
2019-03-22T05:16:34.452Z,49.55
2019-03-22T05:19:06.547Z,49.59
2019-03-22T05:21:37.343Z,49.51
2019-03-22T05:24:08.215Z,49.29
2019-03-22T05:26:40.767Z,49.58
2019-03-22T05:29:13.440Z,48.54
2019-03-22T05:34:39.870Z,48.49
2019-03-22T05:37:09.918Z,48.81
2019-03-22T05:39:44.924Z,49.25
2019-03-22T05:42:26.748Z,49.15
2019-03-22T05:45:16.016Z,49.10
2019-03-22T05:48:10.444Z,49.35
2019-03-22T05:50:42.726Z,49.55
2019-03-22T05:53:13.995Z,49.68
2019-03-22T05:55:44.594Z,48.69
2019-03-22T05:58:14.433Z,49.27
2019-03-22T06:00:44.635Z,49.47
2019-03-22T06:03:33.131Z,48.81
2019-03-22T06:06:03.926Z,48.81
2019-03-22T06:08:34.902Z,47.75
2019-03-22T06:11:33.355Z,48.26
2019-03-22T06:14:07.091Z,48.52
2019-03-22T06:17:15.641Z,47.72
2019-03-22T06:19:45.561Z,47.24
2019-03-22T06:22:16.386Z,47.62
2019-03-22T06:24:47.099Z,47.76
2019-03-22T06:27:17.327Z,47.53
2019-03-22T06:29:54.069Z,47.43
2019-03-22T06:32:19.168Z,48.51
2019-03-22T06:34:49.133Z,48.32
2019-03-22T06:37:18.976Z,47.83
2019-03-22T06:39:48.894Z,47.74
2019-03-22T06:42:18.797Z,48.69
2019-03-22T06:44:48.512Z,47.93
2019-03-22T06:47:18.346Z,47.14
2019-03-22T06:49:48.101Z,47.19
2019-03-22T06:52:17.936Z,47.89
2019-03-22T06:54:47.704Z,46.92
2019-03-22T06:57:17.502Z,46.68
2019-03-22T06:59:47.242Z,46.87
2019-03-22T07:02:17.097Z,47.21
2019-03-22T07:04:46.969Z,47.20
2019-03-22T07:07:16.781Z,47.38
2019-03-22T07:09:46.517Z,47.46
2019-03-22T07:12:16.302Z,47.03
2019-03-22T07:14:46.045Z,46.45
2019-03-22T07:17:15.834Z,45.91
2019-03-22T07:19:45.574Z,45.99
2019-03-22T07:22:15.362Z,45.99
2019-03-22T07:24:45.132Z,45.88
2019-03-22T07:27:15.090Z,45.75
2019-03-22T07:29:45.108Z,45.71
2019-03-22T07:32:15.058Z,45.38
2019-03-22T07:34:45.094Z,45.61
2019-03-22T07:37:14.888Z,44.99
2019-03-22T07:39:45.137Z,44.99
2019-03-22T07:42:17.510Z,44.89
2019-03-22T07:44:46.389Z,43.98
2019-03-22T07:47:16.108Z,43.98
2019-03-22T07:49:46.080Z,43.54
2019-03-22T07:52:16.086Z,43.03
2019-03-22T07:54:45.997Z,42.44
2019-03-22T07:57:16.030Z,41.93
2019-03-22T07:59:45.831Z,41.11
2019-03-22T08:02:15.639Z,40.82
2019-03-22T08:04:45.500Z,40.98
2019-03-22T08:07:15.251Z,41.35
2019-03-22T08:09:45.118Z,41.62
2019-03-22T08:12:14.848Z,41.33
2019-03-22T08:14:44.604Z,40.46
2019-03-22T08:17:14.407Z,39.22
2019-03-22T08:19:44.133Z,38.80
2019-03-22T08:22:14.216Z,38.59
2019-03-22T08:24:44.002Z,37.70
2019-03-22T08:27:13.817Z,37.36
2019-03-22T08:29:43.587Z,37.33
2019-03-22T08:32:13.648Z,37.57
2019-03-22T08:34:43.382Z,37.50
2019-03-22T08:37:13.231Z,37.74
2019-03-22T08:39:42.990Z,38.05
2019-03-22T08:42:12.727Z,38.25
2019-03-22T08:44:42.499Z,37.62
2019-03-22T08:47:12.231Z,37.29
2019-03-22T08:49:42.111Z,36.34
2019-03-22T08:52:12.011Z,36.01
2019-03-22T08:54:41.863Z,35.39
2019-03-22T08:57:11.620Z,34.69
2019-03-22T08:59:41.685Z,34.58
2019-03-22T09:02:11.553Z,34.02
2019-03-22T09:04:41.400Z,33.78
2019-03-22T09:07:11.166Z,33.95
2019-03-22T09:09:41.968Z,33.54
2019-03-22T09:12:11.769Z,33.42
2019-03-22T09:14:41.683Z,33.17
2019-03-22T09:17:11.399Z,32.84
2019-03-22T09:19:41.532Z,32.93
2019-03-22T09:22:11.319Z,33.24
2019-03-22T09:24:41.139Z,33.43
2019-03-22T09:27:10.869Z,32.93
2019-03-22T09:29:41.852Z,31.93
2019-03-22T09:32:11.609Z,32.36
2019-03-22T09:34:41.733Z,32.19
2019-03-22T09:37:11.549Z,32.05
2019-03-22T09:39:41.406Z,31.66
2019-03-22T09:42:11.187Z,31.87
2019-03-22T09:44:45.130Z,31.96
2019-03-22T09:47:12.430Z,32.50
2019-03-22T09:49:42.157Z,33.06
2019-03-22T09:52:11.949Z,32.75
2019-03-22T09:54:41.683Z,32.28
2019-03-22T09:57:11.506Z,32.06
2019-03-22T09:59:41.275Z,31.67
2019-03-22T10:02:11.109Z,30.95
2019-03-22T10:04:40.817Z,31.32
2019-03-22T10:07:10.866Z,31.64
2019-03-22T10:09:40.606Z,31.69
2019-03-22T10:12:10.398Z,31.97
2019-03-22T10:14:40.221Z,31.98
2019-03-22T10:17:10.082Z,31.74
2019-03-22T10:19:42.174Z,31.65
2019-03-22T10:22:11.572Z,31.22
2019-03-22T10:24:41.374Z,30.61
2019-03-22T10:27:11.276Z,30.49
2019-03-22T10:29:41.030Z,30.41
2019-03-22T10:32:10.832Z,31.00
2019-03-22T10:34:40.610Z,31.91
2019-03-22T10:37:10.421Z,32.40
2019-03-22T10:39:40.453Z,32.74
2019-03-22T10:42:10.336Z,32.50
2019-03-22T10:44:40.171Z,33.06
2019-03-22T10:47:09.968Z,33.22
2019-03-22T10:49:41.891Z,33.78
2019-03-22T10:52:11.602Z,33.57
2019-03-22T10:54:41.339Z,33.69
2019-03-22T10:57:11.186Z,33.77
2019-03-22T10:59:40.967Z,34.11
2019-03-22T11:02:11.159Z,34.27
2019-03-22T11:04:40.965Z,34.26
2019-03-22T11:07:10.757Z,34.09
2019-03-22T11:09:40.530Z,33.54
2019-03-22T11:12:12.486Z,33.83
2019-03-22T11:14:41.831Z,33.45
2019-03-22T11:17:11.619Z,33.17
2019-03-22T11:19:41.350Z,33.50
2019-03-22T11:22:11.159Z,33.75
2019-03-22T11:24:40.890Z,33.56
2019-03-22T11:27:10.628Z,33.39
2019-03-22T11:29:40.427Z,33.41
2019-03-22T11:32:12.733Z,33.41
2019-03-22T11:34:41.945Z,33.72
2019-03-22T11:37:11.694Z,33.84
2019-03-22T11:39:41.800Z,34.05
2019-03-22T11:42:11.684Z,33.88
2019-03-22T11:44:41.502Z,34.39
2019-03-22T11:47:11.270Z,34.18
2019-03-22T11:49:41.081Z,34.21
2019-03-22T11:52:10.846Z,34.27
2019-03-22T11:54:40.652Z,34.26
2019-03-22T11:57:10.385Z,34.60
2019-03-22T11:59:40.184Z,34.41
2019-03-22T12:02:10.326Z,34.46
2019-03-22T12:04:40.098Z,34.76
2019-03-22T12:07:09.868Z,34.59
2019-03-22T12:09:39.957Z,34.52
2019-03-22T12:12:09.711Z,34.52
2019-03-22T12:14:39.495Z,34.15
2019-03-22T12:17:09.240Z,34.18
2019-03-22T12:19:39.099Z,33.87
2019-03-22T12:22:09.410Z,33.38
2019-03-22T12:24:39.177Z,33.84
2019-03-22T12:27:09.060Z,33.79
2019-03-22T12:29:38.807Z,33.74
2019-03-22T12:32:08.614Z,33.90
2019-03-22T12:34:38.625Z,33.80
2019-03-22T12:37:08.689Z,33.74
2019-03-22T12:39:38.428Z,33.43
2019-03-22T12:42:08.236Z,32.93
2019-03-22T12:44:37.968Z,33.31
2019-03-22T12:47:07.898Z,32.32
2019-03-22T12:49:37.653Z,32.15
2019-03-22T12:52:07.463Z,32.27
2019-03-22T12:54:37.243Z,32.79
2019-03-22T12:57:07.021Z,33.06
2019-03-22T12:59:37.052Z,32.51
2019-03-22T13:02:06.900Z,31.96
2019-03-22T13:04:36.651Z,31.53
2019-03-22T13:07:06.439Z,31.62
2019-03-22T13:09:36.199Z,31.72
2019-03-22T13:12:06.430Z,31.22
2019-03-22T13:14:36.258Z,30.93
2019-03-22T13:17:06.057Z,31.04
2019-03-22T13:19:35.808Z,30.61
2019-03-22T13:22:05.634Z,30.38
2019-03-22T13:24:35.666Z,29.82
2019-03-22T13:27:05.472Z,29.64
2019-03-22T13:29:35.336Z,29.62
2019-03-22T13:32:05.080Z,29.30
2019-03-22T13:34:35.187Z,28.92
2019-03-22T13:37:04.926Z,29.26
2019-03-22T13:39:34.719Z,28.30
2019-03-22T13:42:04.734Z,28.41
2019-03-22T13:44:34.541Z,28.77
2019-03-22T13:47:04.268Z,28.67
2019-03-22T13:49:34.056Z,29.02
2019-03-22T13:52:03.794Z,28.47
2019-03-22T13:54:33.609Z,28.15
2019-03-22T13:57:03.362Z,28.56
2019-03-22T13:59:33.190Z,28.27
2019-03-22T14:02:02.922Z,27.86
2019-03-22T14:04:32.817Z,27.73
2019-03-22T14:07:02.555Z,27.65
2019-03-22T14:09:32.625Z,27.59
2019-03-22T14:12:02.359Z,27.59
2019-03-22T14:14:32.164Z,27.33
2019-03-22T14:17:01.888Z,26.86
2019-03-22T14:19:31.810Z,26.42
2019-03-22T14:22:01.542Z,26.85
2019-03-22T14:24:31.613Z,26.91
2019-03-22T14:27:01.369Z,26.29
2019-03-22T14:29:31.423Z,25.90
2019-03-22T14:32:01.156Z,26.23
2019-03-22T14:34:30.929Z,25.17
2019-03-22T14:37:01.024Z,26.35
2019-03-22T14:39:30.835Z,25.04
2019-03-22T14:42:00.557Z,24.60
2019-03-22T14:44:30.360Z,25.52
2019-03-22T14:47:00.371Z,25.04
2019-03-22T14:49:30.509Z,24.47
2019-03-22T14:52:00.519Z,24.13
2019-03-22T14:54:30.308Z,23.29
2019-03-22T14:57:00.032Z,25.07
2019-03-22T14:59:29.818Z,22.76
2019-03-22T15:01:59.534Z,22.87
2019-03-22T15:04:29.366Z,22.64
2019-03-22T15:06:59.097Z,22.84
2019-03-22T15:09:29.274Z,22.13
2019-03-22T15:11:59.147Z,22.59
2019-03-22T15:14:56.982Z,23.01
2019-03-22T15:17:57.907Z,22.85
2019-03-22T15:20:45.380Z,22.91
2019-03-22T15:23:43.119Z,22.75
2019-03-22T15:26:40.885Z,22.27
2019-03-22T15:29:27.913Z,22.16
2019-03-22T15:32:08.142Z,22.48
2019-03-22T15:35:00.952Z,22.67
2019-03-22T15:37:48.315Z,22.65
2019-03-22T15:40:18.049Z,22.25
2019-03-22T15:42:47.847Z,21.15
2019-03-22T15:45:17.599Z,20.68
2019-03-22T15:47:47.688Z,20.35
2019-03-22T15:50:17.479Z,20.19
2019-03-22T15:52:47.306Z,20.17
2019-03-22T15:55:17.051Z,19.38
2019-03-22T15:57:46.877Z,19.15
2019-03-22T16:00:18.203Z,19.27
2019-03-22T16:02:48.354Z,19.70
2019-03-22T16:05:18.304Z,19.88
2019-03-22T16:07:48.170Z,20.04
2019-03-22T16:10:17.978Z,20.39
2019-03-22T16:12:47.717Z,21.52
2019-03-22T16:15:18.120Z,22.18
2019-03-22T16:17:47.975Z,22.54
2019-03-22T16:20:18.108Z,23.26
2019-03-22T16:22:47.918Z,24.39
2019-03-22T16:25:17.789Z,25.16
2019-03-22T16:27:47.557Z,25.71
2019-03-22T16:30:18.843Z,26.34
2019-03-22T16:32:48.592Z,26.79
2019-03-22T16:35:18.404Z,27.23
2019-03-22T16:37:48.181Z,27.83
2019-03-22T16:40:24.137Z,28.18
2019-03-22T16:42:49.755Z,28.42
2019-03-22T16:45:39.262Z,28.53
2019-03-22T16:48:09.424Z,28.65
2019-03-22T16:50:39.266Z,28.82
2019-03-22T16:53:09.012Z,28.98
2019-03-22T16:55:38.774Z,29.10
2019-03-22T16:58:08.587Z,29.46
2019-03-22T17:00:38.475Z,30.11
2019-03-22T17:03:08.440Z,30.58
2019-03-22T17:05:38.270Z,30.79
2019-03-22T17:08:08.167Z,31.27
2019-03-22T17:10:37.938Z,31.84
2019-03-22T17:13:07.752Z,32.58
2019-03-22T17:15:37.542Z,33.08
2019-03-22T17:18:07.457Z,33.48
2019-03-22T17:20:37.237Z,33.69
2019-03-22T17:23:07.087Z,33.87
2019-03-22T17:25:36.895Z,33.92
2019-03-22T17:28:06.596Z,34.02
2019-03-22T17:30:36.800Z,34.23
2019-03-22T17:33:08.022Z,34.17
2019-03-22T17:35:38.185Z,34.43
2019-03-22T17:38:08.280Z,34.66
2019-03-22T17:40:38.375Z,35.02
2019-03-22T17:43:08.147Z,35.42
2019-03-22T17:45:37.958Z,35.73
2019-03-22T17:48:07.701Z,36.14
2019-03-22T17:50:37.502Z,36.28
2019-03-22T17:53:07.250Z,36.43
2019-03-22T17:55:37.045Z,36.47
2019-03-22T17:58:06.800Z,36.81
2019-03-22T18:00:36.788Z,36.95
2019-03-22T18:03:06.519Z,36.80
2019-03-22T18:05:36.382Z,36.85
2019-03-22T18:08:06.155Z,37.48
2019-03-22T18:10:35.964Z,37.35
2019-03-22T18:13:05.704Z,37.48
2019-03-22T18:15:35.447Z,37.54
2019-03-22T18:18:05.235Z,37.93
2019-03-22T18:20:34.966Z,38.18
2019-03-22T18:23:04.856Z,38.34
2019-03-22T18:25:34.853Z,38.52
2019-03-22T18:28:04.951Z,38.61
2019-03-22T18:30:34.731Z,38.92
2019-03-22T18:33:05.508Z,38.97
2019-03-22T18:35:35.279Z,39.17
2019-03-22T18:38:05.365Z,39.14
2019-03-22T18:40:35.169Z,39.34
2019-03-22T18:43:04.975Z,39.15
2019-03-22T18:45:34.728Z,39.49
2019-03-22T18:48:04.566Z,39.54
2019-03-22T18:50:34.605Z,39.71
2019-03-22T18:53:04.457Z,39.46
2019-03-22T18:55:34.239Z,39.59
2019-03-22T18:58:04.024Z,39.94
2019-03-22T19:00:34.008Z,40.18
2019-03-22T19:03:04.222Z,40.34
2019-03-22T19:05:34.268Z,40.47
2019-03-22T19:08:04.057Z,40.55
2019-03-22T19:10:33.864Z,40.58
2019-03-22T19:13:03.628Z,40.55
2019-03-22T19:15:33.514Z,40.79
2019-03-22T19:18:03.295Z,40.66
2019-03-22T19:20:33.254Z,40.62
2019-03-22T19:23:03.007Z,40.84
2019-03-22T19:25:32.926Z,40.78
2019-03-22T19:28:02.675Z,41.21
2019-03-22T19:30:32.989Z,41.18
2019-03-22T19:33:02.869Z,41.29
2019-03-22T19:35:32.731Z,41.62
2019-03-22T19:38:02.618Z,41.73
2019-03-22T19:40:32.476Z,41.95
2019-03-22T19:43:02.584Z,42.16
2019-03-22T19:45:32.356Z,42.37
2019-03-22T19:48:02.233Z,42.69
2019-03-22T19:50:31.997Z,42.66
2019-03-22T19:55:36.884Z,42.82
2019-03-22T19:58:06.685Z,43.06
2019-03-22T20:00:36.415Z,43.22
2019-03-22T20:03:06.200Z,43.46
2019-03-22T20:05:36.016Z,43.47
2019-03-22T20:08:05.841Z,43.58
2019-03-22T20:10:35.562Z,43.68
2019-03-22T20:13:05.347Z,44.03
2019-03-22T20:15:35.086Z,44.38
2019-03-22T20:18:04.897Z,44.56
2019-03-22T20:20:36.256Z,44.39
2019-03-22T20:23:06.103Z,44.70
2019-03-22T20:25:36.649Z,44.23
2019-03-22T20:28:06.451Z,44.14
2019-03-22T20:30:36.182Z,44.09
2019-03-22T20:33:06.099Z,43.91
2019-03-22T20:35:36.137Z,44.45
2019-03-22T20:38:06.438Z,44.06
2019-03-22T20:40:36.503Z,44.43
2019-03-22T20:43:06.303Z,44.71
2019-03-22T20:45:36.041Z,44.71
2019-03-22T20:48:05.818Z,44.85
2019-03-22T20:50:36.278Z,45.27
2019-03-22T20:53:06.176Z,45.35
2019-03-22T20:55:35.898Z,45.77
2019-03-22T20:58:05.967Z,45.75
2019-03-22T21:00:35.701Z,46.05
2019-03-22T21:03:05.490Z,45.64
2019-03-22T21:05:35.499Z,45.93
2019-03-22T21:08:05.478Z,45.59
2019-03-22T21:10:35.228Z,45.81
2019-03-22T21:13:05.274Z,46.36
2019-03-22T21:15:35.009Z,46.25
2019-03-22T21:18:04.818Z,46.58
2019-03-22T21:20:34.823Z,46.62
2019-03-22T21:23:04.625Z,46.93
2019-03-22T21:25:34.647Z,46.39
2019-03-22T21:28:04.448Z,45.94
2019-03-22T21:30:34.206Z,45.91
2019-03-22T21:33:03.991Z,46.07
2019-03-22T21:35:37.489Z,46.17
2019-03-22T21:38:10.798Z,46.03
2019-03-22T21:40:36.852Z,46.08
2019-03-22T21:43:06.653Z,45.96
2019-03-22T21:45:36.385Z,46.26
2019-03-22T21:48:06.456Z,46.76
2019-03-22T21:50:36.194Z,46.34
2019-03-22T21:53:05.926Z,46.66
2019-03-22T21:55:35.723Z,46.35
2019-03-22T21:58:05.455Z,46.82
2019-03-22T22:00:35.238Z,47.14
2019-03-22T22:03:05.260Z,47.13
2019-03-22T22:05:35.060Z,47.18
2019-03-22T22:08:05.154Z,47.27
2019-03-22T22:10:34.897Z,47.47
2019-03-22T22:13:04.631Z,47.81
2019-03-22T22:15:34.684Z,48.04
2019-03-22T22:18:04.416Z,48.12
2019-03-22T22:20:34.230Z,48.05
2019-03-22T22:23:03.971Z,47.98
2019-03-22T22:25:33.762Z,48.07
2019-03-22T22:28:03.526Z,48.43
2019-03-22T22:30:33.271Z,48.29
2019-03-22T22:33:03.003Z,48.72
2019-03-22T22:35:32.843Z,48.78
2019-03-22T22:38:02.575Z,48.62
2019-03-22T22:40:32.673Z,49.02
2019-03-22T22:43:02.410Z,49.27
2019-03-22T22:45:32.193Z,49.28
2019-03-22T22:48:01.946Z,49.19
2019-03-22T22:50:31.741Z,49.14
2019-03-22T22:53:01.476Z,49.34
2019-03-22T22:55:31.271Z,49.23
2019-03-22T22:58:01.149Z,49.26
2019-03-22T23:00:31.064Z,49.17
2019-03-22T23:03:00.797Z,48.70
2019-03-22T23:05:30.636Z,48.67
2019-03-22T23:08:00.425Z,48.47
2019-03-22T23:10:30.519Z,48.68
2019-03-22T23:13:00.259Z,48.46
2019-03-22T23:15:30.392Z,48.59
2019-03-22T23:18:00.406Z,48.55
2019-03-22T23:20:30.199Z,48.55
2019-03-22T23:22:59.951Z,48.63
2019-03-22T23:25:29.751Z,49.09
2019-03-22T23:27:59.505Z,49.47
2019-03-22T23:30:29.290Z,49.44
2019-03-22T23:32:59.311Z,49.45
2019-03-22T23:35:29.451Z,49.36
2019-03-22T23:37:59.184Z,49.46
2019-03-22T23:40:28.963Z,49.43
2019-03-22T23:42:58.704Z,49.75
2019-03-22T23:45:28.494Z,49.67
2019-03-22T23:47:58.496Z,49.51
2019-03-22T23:50:28.550Z,49.71
2019-03-22T23:52:58.553Z,49.39
2019-03-22T23:55:28.356Z,49.31
2019-03-22T23:57:58.077Z,49.45
